sensor_id;sensor_type;location;lat;lon;timestamp;P1;durP1;ratioP1;P2;durP2;ratioP2
19643;SDS011;9970;-36.854;174.870;2023-04-01T00:00:59;1.30;;;1.30;;
19643;SDS011;9970;-36.854;174.870;2023-04-01T00:03:33;1.10;;;1.10;;
19643;SDS011;9970;-36.854;174.870;2023-04-01T00:06:06;1.10;;;1.10;;
19643;SDS011;9970;-36.854;174.870;2023-04-01T00:08:40;1.10;;;1.10;;
19643;SDS011;9970;-36.854;174.870;2023-04-01T00:11:14;1.10;;;1.10;;
19643;SDS011;9970;-36.854;174.870;2023-04-01T00:13:47;1.10;;;1.10;;
19643;SDS011;9970;-36.854;174.870;2023-04-01T00:16:20;1.20;;;1.20;;
19643;SDS011;9970;-36.854;174.870;2023-04-01T00:18:52;1.20;;;1.20;;
19643;SDS011;9970;-36.854;174.870;2023-04-01T00:21:25;1.20;;;1.20;;
19643;SDS011;9970;-36.854;174.870;2023-04-01T00:23:58;1.20;;;1.20;;
19643;SDS011;9970;-36.854;174.870;2023-04-01T00:26:31;1.10;;;1.10;;
19643;SDS011;9970;-36.854;174.870;2023-04-01T00:29:04;1.20;;;1.20;;
19643;SDS011;9970;-36.854;174.870;2023-04-01T00:31:37;1.10;;;1.10;;
19643;SDS011;9970;-36.854;174.870;2023-04-01T00:34:10;1.10;;;1.10;;
19643;SDS011;9970;-36.854;174.870;2023-04-01T00:36:43;1.10;;;1.10;;
19643;SDS011;9970;-36.854;174.870;2023-04-01T00:39:16;1.10;;;1.10;;
19643;SDS011;9970;-36.854;174.870;2023-04-01T00:41:48;1.00;;;1.00;;
19643;SDS011;9970;-36.854;174.870;2023-04-01T00:44:22;1.10;;;1.10;;
19643;SDS011;9970;-36.854;174.870;2023-04-01T00:46:56;1.20;;;1.20;;
19643;SDS011;9970;-36.854;174.870;2023-04-01T00:49:34;1.20;;;1.20;;
19643;SDS011;9970;-36.854;174.870;2023-04-01T00:52:04;1.10;;;1.10;;
19643;SDS011;9970;-36.854;174.870;2023-04-01T00:54:39;1.10;;;1.10;;
19643;SDS011;9970;-36.854;174.870;2023-04-01T00:57:22;1.10;;;1.10;;
19643;SDS011;9970;-36.854;174.870;2023-04-01T00:59:55;1.10;;;1.10;;
19643;SDS011;9970;-36.854;174.870;2023-04-01T01:02:28;1.20;;;1.20;;
19643;SDS011;9970;-36.854;174.870;2023-04-01T01:05:07;1.17;;;1.17;;
19643;SDS011;9970;-36.854;174.870;2023-04-01T01:07:49;1.10;;;1.10;;
19643;SDS011;9970;-36.854;174.870;2023-04-01T01:10:33;1.10;;;1.10;;
19643;SDS011;9970;-36.854;174.870;2023-04-01T01:13:04;1.10;;;1.10;;
19643;SDS011;9970;-36.854;174.870;2023-04-01T01:18:58;1.00;;;1.00;;
19643;SDS011;9970;-36.854;174.870;2023-04-01T01:22:17;1.10;;;1.10;;
19643;SDS011;9970;-36.854;174.870;2023-04-01T01:28:29;1.10;;;1.10;;
19643;SDS011;9970;-36.854;174.870;2023-04-01T01:31:12;1.20;;;1.20;;
19643;SDS011;9970;-36.854;174.870;2023-04-01T01:36:26;1.00;;;1.00;;
19643;SDS011;9970;-36.854;174.870;2023-04-01T01:39:00;1.00;;;1.00;;
19643;SDS011;9970;-36.854;174.870;2023-04-01T01:41:35;1.00;;;1.00;;
19643;SDS011;9970;-36.854;174.870;2023-04-01T01:44:09;1.00;;;1.00;;
19643;SDS011;9970;-36.854;174.870;2023-04-01T01:46:44;0.93;;;0.93;;
19643;SDS011;9970;-36.854;174.870;2023-04-01T01:49:18;1.00;;;1.00;;
19643;SDS011;9970;-36.854;174.870;2023-04-01T01:51:52;0.90;;;0.90;;
19643;SDS011;9970;-36.854;174.870;2023-04-01T01:54:25;0.90;;;0.90;;
19643;SDS011;9970;-36.854;174.870;2023-04-01T01:57:08;0.90;;;0.90;;
19643;SDS011;9970;-36.854;174.870;2023-04-01T01:59:42;0.90;;;0.90;;
19643;SDS011;9970;-36.854;174.870;2023-04-01T02:02:17;0.90;;;0.90;;
19643;SDS011;9970;-36.854;174.870;2023-04-01T02:04:50;0.90;;;0.90;;
19643;SDS011;9970;-36.854;174.870;2023-04-01T02:07:30;0.80;;;0.80;;
19643;SDS011;9970;-36.854;174.870;2023-04-01T02:10:03;0.90;;;0.90;;
19643;SDS011;9970;-36.854;174.870;2023-04-01T02:12:36;0.90;;;0.90;;
19643;SDS011;9970;-36.854;174.870;2023-04-01T02:15:12;0.90;;;0.90;;
19643;SDS011;9970;-36.854;174.870;2023-04-01T02:17:46;0.90;;;0.90;;
19643;SDS011;9970;-36.854;174.870;2023-04-01T02:20:21;1.00;;;1.00;;
19643;SDS011;9970;-36.854;174.870;2023-04-01T02:22:55;0.90;;;0.90;;
19643;SDS011;9970;-36.854;174.870;2023-04-01T02:25:30;0.90;;;0.90;;
19643;SDS011;9970;-36.854;174.870;2023-04-01T02:28:04;0.90;;;0.90;;
19643;SDS011;9970;-36.854;174.870;2023-04-01T02:30:38;0.90;;;0.90;;
19643;SDS011;9970;-36.854;174.870;2023-04-01T02:33:13;1.00;;;1.00;;
19643;SDS011;9970;-36.854;174.870;2023-04-01T02:35:46;1.00;;;1.00;;
19643;SDS011;9970;-36.854;174.870;2023-04-01T02:38:19;0.90;;;0.90;;
19643;SDS011;9970;-36.854;174.870;2023-04-01T02:40:56;1.10;;;1.10;;
19643;SDS011;9970;-36.854;174.870;2023-04-01T02:43:30;0.90;;;0.90;;
19643;SDS011;9970;-36.854;174.870;2023-04-01T02:46:04;0.90;;;0.90;;
19643;SDS011;9970;-36.854;174.870;2023-04-01T02:48:39;1.00;;;1.00;;
19643;SDS011;9970;-36.854;174.870;2023-04-01T02:51:12;1.00;;;1.00;;
19643;SDS011;9970;-36.854;174.870;2023-04-01T02:53:45;1.00;;;1.00;;
19643;SDS011;9970;-36.854;174.870;2023-04-01T02:56:18;0.90;;;0.90;;
19643;SDS011;9970;-36.854;174.870;2023-04-01T02:58:58;1.00;;;1.00;;
19643;SDS011;9970;-36.854;174.870;2023-04-01T03:01:27;0.90;;;0.90;;
19643;SDS011;9970;-36.854;174.870;2023-04-01T03:04:00;0.90;;;0.90;;
19643;SDS011;9970;-36.854;174.870;2023-04-01T03:06:33;0.93;;;0.93;;
19643;SDS011;9970;-36.854;174.870;2023-04-01T03:09:06;0.90;;;0.90;;
19643;SDS011;9970;-36.854;174.870;2023-04-01T03:11:39;0.90;;;0.90;;
19643;SDS011;9970;-36.854;174.870;2023-04-01T03:14:12;0.90;;;0.90;;
19643;SDS011;9970;-36.854;174.870;2023-04-01T03:16:45;0.90;;;0.90;;
19643;SDS011;9970;-36.854;174.870;2023-04-01T03:19:18;0.90;;;0.90;;
19643;SDS011;9970;-36.854;174.870;2023-04-01T03:21:51;0.90;;;0.90;;
19643;SDS011;9970;-36.854;174.870;2023-04-01T03:24:24;0.90;;;0.90;;
19643;SDS011;9970;-36.854;174.870;2023-04-01T03:27:00;0.90;;;0.90;;
19643;SDS011;9970;-36.854;174.870;2023-04-01T03:29:33;0.93;;;0.93;;
19643;SDS011;9970;-36.854;174.870;2023-04-01T03:32:06;1.00;;;1.00;;
19643;SDS011;9970;-36.854;174.870;2023-04-01T03:34:39;1.00;;;1.00;;
19643;SDS011;9970;-36.854;174.870;2023-04-01T03:37:12;1.00;;;1.00;;
19643;SDS011;9970;-36.854;174.870;2023-04-01T03:39:45;1.00;;;1.00;;
19643;SDS011;9970;-36.854;174.870;2023-04-01T03:42:18;1.10;;;1.10;;
19643;SDS011;9970;-36.854;174.870;2023-04-01T03:44:51;1.00;;;1.00;;
19643;SDS011;9970;-36.854;174.870;2023-04-01T03:47:24;0.97;;;0.97;;
19643;SDS011;9970;-36.854;174.870;2023-04-01T03:49:57;1.00;;;1.00;;
19643;SDS011;9970;-36.854;174.870;2023-04-01T03:52:30;1.00;;;1.00;;
19643;SDS011;9970;-36.854;174.870;2023-04-01T03:55:03;1.00;;;1.00;;
19643;SDS011;9970;-36.854;174.870;2023-04-01T03:57:37;1.00;;;1.00;;
19643;SDS011;9970;-36.854;174.870;2023-04-01T04:00:11;1.00;;;1.00;;
19643;SDS011;9970;-36.854;174.870;2023-04-01T04:02:45;1.00;;;1.00;;
19643;SDS011;9970;-36.854;174.870;2023-04-01T04:05:18;1.00;;;1.00;;
19643;SDS011;9970;-36.854;174.870;2023-04-01T04:07:51;1.10;;;1.10;;
19643;SDS011;9970;-36.854;174.870;2023-04-01T04:10:24;1.10;;;1.10;;
19643;SDS011;9970;-36.854;174.870;2023-04-01T04:12:59;1.00;;;1.00;;
19643;SDS011;9970;-36.854;174.870;2023-04-01T04:15:32;1.00;;;1.00;;
19643;SDS011;9970;-36.854;174.870;2023-04-01T04:18:04;1.00;;;1.00;;
19643;SDS011;9970;-36.854;174.870;2023-04-01T04:20:37;1.00;;;1.00;;
19643;SDS011;9970;-36.854;174.870;2023-04-01T04:23:12;1.00;;;1.00;;
19643;SDS011;9970;-36.854;174.870;2023-04-01T04:25:58;0.90;;;0.90;;
19643;SDS011;9970;-36.854;174.870;2023-04-01T04:28:37;1.00;;;1.00;;
19643;SDS011;9970;-36.854;174.870;2023-04-01T04:31:09;1.00;;;1.00;;
19643;SDS011;9970;-36.854;174.870;2023-04-01T04:33:43;1.00;;;1.00;;
19643;SDS011;9970;-36.854;174.870;2023-04-01T04:36:16;0.90;;;0.90;;
19643;SDS011;9970;-36.854;174.870;2023-04-01T04:38:49;0.90;;;0.90;;
19643;SDS011;9970;-36.854;174.870;2023-04-01T04:41:22;0.90;;;0.90;;
19643;SDS011;9970;-36.854;174.870;2023-04-01T04:43:55;0.90;;;0.90;;
19643;SDS011;9970;-36.854;174.870;2023-04-01T04:46:29;0.90;;;0.90;;
19643;SDS011;9970;-36.854;174.870;2023-04-01T04:49:01;1.00;;;1.00;;
19643;SDS011;9970;-36.854;174.870;2023-04-01T04:51:34;0.90;;;0.90;;
19643;SDS011;9970;-36.854;174.870;2023-04-01T04:54:07;0.90;;;0.90;;
19643;SDS011;9970;-36.854;174.870;2023-04-01T04:56:44;0.90;;;0.90;;
19643;SDS011;9970;-36.854;174.870;2023-04-01T04:59:17;0.90;;;0.90;;
19643;SDS011;9970;-36.854;174.870;2023-04-01T05:01:51;0.90;;;0.90;;
19643;SDS011;9970;-36.854;174.870;2023-04-01T05:04:24;0.90;;;0.90;;
19643;SDS011;9970;-36.854;174.870;2023-04-01T05:06:57;0.90;;;0.90;;
19643;SDS011;9970;-36.854;174.870;2023-04-01T05:09:30;0.83;;;0.83;;
19643;SDS011;9970;-36.854;174.870;2023-04-01T05:12:03;0.90;;;0.90;;
19643;SDS011;9970;-36.854;174.870;2023-04-01T05:14:36;0.80;;;0.80;;
19643;SDS011;9970;-36.854;174.870;2023-04-01T05:17:09;0.90;;;0.90;;
19643;SDS011;9970;-36.854;174.870;2023-04-01T05:19:42;0.90;;;0.90;;
19643;SDS011;9970;-36.854;174.870;2023-04-01T05:22:15;1.00;;;1.00;;
19643;SDS011;9970;-36.854;174.870;2023-04-01T05:24:48;0.90;;;0.90;;
19643;SDS011;9970;-36.854;174.870;2023-04-01T05:27:21;0.90;;;0.90;;
19643;SDS011;9970;-36.854;174.870;2023-04-01T05:29:54;0.90;;;0.90;;
19643;SDS011;9970;-36.854;174.870;2023-04-01T05:32:27;1.00;;;1.00;;
19643;SDS011;9970;-36.854;174.870;2023-04-01T05:35:01;0.97;;;0.97;;
19643;SDS011;9970;-36.854;174.870;2023-04-01T05:37:35;1.00;;;1.00;;
19643;SDS011;9970;-36.854;174.870;2023-04-01T05:40:08;1.00;;;1.00;;
19643;SDS011;9970;-36.854;174.870;2023-04-01T05:42:41;1.00;;;1.00;;
19643;SDS011;9970;-36.854;174.870;2023-04-01T05:45:14;1.00;;;1.00;;
19643;SDS011;9970;-36.854;174.870;2023-04-01T05:47:48;0.93;;;0.93;;
19643;SDS011;9970;-36.854;174.870;2023-04-01T05:50:21;1.00;;;1.00;;
19643;SDS011;9970;-36.854;174.870;2023-04-01T05:52:54;1.00;;;1.00;;
19643;SDS011;9970;-36.854;174.870;2023-04-01T05:55:26;1.00;;;1.00;;
19643;SDS011;9970;-36.854;174.870;2023-04-01T05:58:00;1.00;;;1.00;;
19643;SDS011;9970;-36.854;174.870;2023-04-01T06:00:32;1.00;;;1.00;;
19643;SDS011;9970;-36.854;174.870;2023-04-01T06:03:06;0.97;;;0.97;;
19643;SDS011;9970;-36.854;174.870;2023-04-01T06:05:40;1.00;;;1.00;;
19643;SDS011;9970;-36.854;174.870;2023-04-01T06:08:17;1.00;;;1.00;;
19643;SDS011;9970;-36.854;174.870;2023-04-01T06:25:29;1.10;;;1.10;;
19643;SDS011;9970;-36.854;174.870;2023-04-01T06:31:36;1.10;;;1.10;;
19643;SDS011;9970;-36.854;174.870;2023-04-01T06:33:41;1.00;;;1.00;;
19643;SDS011;9970;-36.854;174.870;2023-04-01T06:36:16;1.10;;;1.10;;
19643;SDS011;9970;-36.854;174.870;2023-04-01T06:42:02;0.90;;;0.90;;
19643;SDS011;9970;-36.854;174.870;2023-04-01T06:47:52;0.90;;;0.90;;
19643;SDS011;9970;-36.854;174.870;2023-04-01T06:53:32;0.90;;;0.90;;
19643;SDS011;9970;-36.854;174.870;2023-04-01T06:56:08;0.93;;;0.93;;
19643;SDS011;9970;-36.854;174.870;2023-04-01T06:58:58;0.90;;;0.90;;
19643;SDS011;9970;-36.854;174.870;2023-04-01T07:01:30;0.90;;;0.90;;
19643;SDS011;9970;-36.854;174.870;2023-04-01T07:04:37;0.90;;;0.90;;
19643;SDS011;9970;-36.854;174.870;2023-04-01T07:07:09;0.90;;;0.90;;
19643;SDS011;9970;-36.854;174.870;2023-04-01T07:09:47;0.90;;;0.90;;
19643;SDS011;9970;-36.854;174.870;2023-04-01T07:12:21;0.90;;;0.90;;
19643;SDS011;9970;-36.854;174.870;2023-04-01T07:14:53;0.90;;;0.90;;
19643;SDS011;9970;-36.854;174.870;2023-04-01T07:17:28;0.90;;;0.90;;
19643;SDS011;9970;-36.854;174.870;2023-04-01T07:20:13;1.00;;;1.00;;
19643;SDS011;9970;-36.854;174.870;2023-04-01T07:22:45;0.90;;;0.90;;
19643;SDS011;9970;-36.854;174.870;2023-04-01T07:26:06;0.87;;;0.87;;
19643;SDS011;9970;-36.854;174.870;2023-04-01T07:28:11;0.90;;;0.90;;
19643;SDS011;9970;-36.854;174.870;2023-04-01T07:31:05;0.90;;;0.90;;
19643;SDS011;9970;-36.854;174.870;2023-04-01T07:33:50;0.90;;;0.90;;
19643;SDS011;9970;-36.854;174.870;2023-04-01T07:36:33;0.90;;;0.90;;
19643;SDS011;9970;-36.854;174.870;2023-04-01T07:39:09;0.90;;;0.90;;
19643;SDS011;9970;-36.854;174.870;2023-04-01T07:41:57;0.90;;;0.90;;
19643;SDS011;9970;-36.854;174.870;2023-04-01T07:44:40;0.80;;;0.80;;
19643;SDS011;9970;-36.854;174.870;2023-04-01T07:50:29;0.90;;;0.90;;
19643;SDS011;9970;-36.854;174.870;2023-04-01T07:53:06;0.80;;;0.80;;
19643;SDS011;9970;-36.854;174.870;2023-04-01T07:58:58;0.80;;;0.80;;
19643;SDS011;9970;-36.854;174.870;2023-04-01T08:04:23;0.80;;;0.80;;
19643;SDS011;9970;-36.854;174.870;2023-04-01T08:07:09;0.80;;;0.80;;
19643;SDS011;9970;-36.854;174.870;2023-04-01T08:09:56;0.80;;;0.80;;
19643;SDS011;9970;-36.854;174.870;2023-04-01T08:12:53;0.80;;;0.80;;
19643;SDS011;9970;-36.854;174.870;2023-04-01T08:18:39;0.80;;;0.80;;
19643;SDS011;9970;-36.854;174.870;2023-04-01T08:21:31;0.90;;;0.90;;
19643;SDS011;9970;-36.854;174.870;2023-04-01T08:24:05;0.80;;;0.80;;
19643;SDS011;9970;-36.854;174.870;2023-04-01T08:26:41;0.90;;;0.90;;
19643;SDS011;9970;-36.854;174.870;2023-04-01T08:29:14;0.80;;;0.80;;
19643;SDS011;9970;-36.854;174.870;2023-04-01T08:34:31;0.90;;;0.90;;
19643;SDS011;9970;-36.854;174.870;2023-04-01T08:37:17;0.80;;;0.80;;
19643;SDS011;9970;-36.854;174.870;2023-04-01T08:39:51;0.90;;;0.90;;
19643;SDS011;9970;-36.854;174.870;2023-04-01T08:45:25;0.90;;;0.90;;
19643;SDS011;9970;-36.854;174.870;2023-04-01T08:56:42;0.80;;;0.80;;
19643;SDS011;9970;-36.854;174.870;2023-04-01T08:59:35;0.90;;;0.90;;
19643;SDS011;9970;-36.854;174.870;2023-04-01T09:02:14;0.90;;;0.90;;
19643;SDS011;9970;-36.854;174.870;2023-04-01T09:05:17;0.80;;;0.80;;
19643;SDS011;9970;-36.854;174.870;2023-04-01T09:13:48;0.90;;;0.90;;
19643;SDS011;9970;-36.854;174.870;2023-04-01T09:16:42;0.90;;;0.90;;
19643;SDS011;9970;-36.854;174.870;2023-04-01T09:19:33;0.90;;;0.90;;
19643;SDS011;9970;-36.854;174.870;2023-04-01T09:27:57;0.90;;;0.90;;
19643;SDS011;9970;-36.854;174.870;2023-04-01T09:30:57;0.90;;;0.90;;
19643;SDS011;9970;-36.854;174.870;2023-04-01T09:45:20;0.80;;;0.80;;
19643;SDS011;9970;-36.854;174.870;2023-04-01T09:48:02;0.90;;;0.90;;
19643;SDS011;9970;-36.854;174.870;2023-04-01T09:50:41;0.87;;;0.87;;
19643;SDS011;9970;-36.854;174.870;2023-04-01T09:56:41;0.90;;;0.90;;
19643;SDS011;9970;-36.854;174.870;2023-04-01T10:05:28;0.87;;;0.87;;
19643;SDS011;9970;-36.854;174.870;2023-04-01T10:08:26;0.97;;;0.97;;
19643;SDS011;9970;-36.854;174.870;2023-04-01T10:11:14;0.90;;;0.90;;
19643;SDS011;9970;-36.854;174.870;2023-04-01T10:20:12;0.90;;;0.90;;
19643;SDS011;9970;-36.854;174.870;2023-04-01T10:25:45;0.97;;;0.97;;
19643;SDS011;9970;-36.854;174.870;2023-04-01T10:28:34;0.90;;;0.90;;
19643;SDS011;9970;-36.854;174.870;2023-04-01T10:31:28;0.90;;;0.90;;
19643;SDS011;9970;-36.854;174.870;2023-04-01T10:39:46;1.00;;;1.00;;
19643;SDS011;9970;-36.854;174.870;2023-04-01T10:42:38;1.00;;;1.00;;
19643;SDS011;9970;-36.854;174.870;2023-04-01T10:48:39;1.00;;;1.00;;
19643;SDS011;9970;-36.854;174.870;2023-04-01T10:51:38;0.90;;;0.90;;
19643;SDS011;9970;-36.854;174.870;2023-04-01T10:54:20;1.00;;;1.00;;
19643;SDS011;9970;-36.854;174.870;2023-04-01T10:56:56;1.00;;;1.00;;
19643;SDS011;9970;-36.854;174.870;2023-04-01T11:22:36;1.00;;;1.00;;
19643;SDS011;9970;-36.854;174.870;2023-04-01T11:34:02;1.00;;;1.00;;
19643;SDS011;9970;-36.854;174.870;2023-04-01T11:36:57;1.10;;;1.10;;
19643;SDS011;9970;-36.854;174.870;2023-04-01T11:42:40;1.00;;;1.00;;
19643;SDS011;9970;-36.854;174.870;2023-04-01T11:56:59;1.00;;;1.00;;
19643;SDS011;9970;-36.854;174.870;2023-04-01T12:03:01;1.00;;;1.00;;
19643;SDS011;9970;-36.854;174.870;2023-04-01T12:05:44;1.00;;;1.00;;
19643;SDS011;9970;-36.854;174.870;2023-04-01T12:08:50;1.00;;;1.00;;
19643;SDS011;9970;-36.854;174.870;2023-04-01T12:22:28;1.10;;;1.10;;
19643;SDS011;9970;-36.854;174.870;2023-04-01T12:30:46;1.10;;;1.10;;
19643;SDS011;9970;-36.854;174.870;2023-04-01T12:50:15;1.10;;;1.10;;
19643;SDS011;9970;-36.854;174.870;2023-04-01T12:58:22;1.00;;;1.00;;
19643;SDS011;9970;-36.854;174.870;2023-04-01T13:06:55;1.00;;;1.00;;
19643;SDS011;9970;-36.854;174.870;2023-04-01T13:12:43;1.00;;;1.00;;
19643;SDS011;9970;-36.854;174.870;2023-04-01T13:15:27;1.07;;;1.07;;
19643;SDS011;9970;-36.854;174.870;2023-04-01T13:20:59;1.10;;;1.10;;
19643;SDS011;9970;-36.854;174.870;2023-04-01T13:38:08;1.20;;;1.20;;
19643;SDS011;9970;-36.854;174.870;2023-04-01T13:40:49;1.30;;;1.30;;
19643;SDS011;9970;-36.854;174.870;2023-04-01T13:43:24;1.20;;;1.20;;
19643;SDS011;9970;-36.854;174.870;2023-04-01T13:51:52;1.10;;;1.10;;
19643;SDS011;9970;-36.854;174.870;2023-04-01T13:57:23;1.20;;;1.20;;
19643;SDS011;9970;-36.854;174.870;2023-04-01T14:09:02;1.10;;;1.10;;
19643;SDS011;9970;-36.854;174.870;2023-04-01T14:11:45;1.20;;;1.20;;
19643;SDS011;9970;-36.854;174.870;2023-04-01T14:14:31;1.20;;;1.20;;
19643;SDS011;9970;-36.854;174.870;2023-04-01T14:28:55;1.20;;;1.20;;
19643;SDS011;9970;-36.854;174.870;2023-04-01T14:31:53;1.20;;;1.20;;
19643;SDS011;9970;-36.854;174.870;2023-04-01T14:34:41;1.30;;;1.30;;
19643;SDS011;9970;-36.854;174.870;2023-04-01T14:51:49;1.27;;;1.27;;
19643;SDS011;9970;-36.854;174.870;2023-04-01T14:54:36;1.20;;;1.20;;
19643;SDS011;9970;-36.854;174.870;2023-04-01T14:57:15;1.20;;;1.20;;
19643;SDS011;9970;-36.854;174.870;2023-04-01T15:08:21;1.20;;;1.20;;
19643;SDS011;9970;-36.854;174.870;2023-04-01T15:11:13;1.20;;;1.20;;
19643;SDS011;9970;-36.854;174.870;2023-04-01T15:14:04;1.20;;;1.20;;
19643;SDS011;9970;-36.854;174.870;2023-04-01T15:19:46;1.20;;;1.20;;
19643;SDS011;9970;-36.854;174.870;2023-04-01T15:22:48;1.20;;;1.20;;
19643;SDS011;9970;-36.854;174.870;2023-04-01T15:25:39;1.20;;;1.20;;
19643;SDS011;9970;-36.854;174.870;2023-04-01T15:28:37;1.40;;;1.40;;
19643;SDS011;9970;-36.854;174.870;2023-04-01T15:31:29;1.40;;;1.40;;
19643;SDS011;9970;-36.854;174.870;2023-04-01T15:36:53;1.40;;;1.40;;
19643;SDS011;9970;-36.854;174.870;2023-04-01T15:39:34;1.40;;;1.40;;
19643;SDS011;9970;-36.854;174.870;2023-04-01T15:50:11;1.40;;;1.40;;
19643;SDS011;9970;-36.854;174.870;2023-04-01T15:53:03;1.40;;;1.40;;
19643;SDS011;9970;-36.854;174.870;2023-04-01T15:55:39;1.40;;;1.40;;
19643;SDS011;9970;-36.854;174.870;2023-04-01T16:01:15;1.40;;;1.40;;
19643;SDS011;9970;-36.854;174.870;2023-04-01T16:04:07;1.40;;;1.40;;
19643;SDS011;9970;-36.854;174.870;2023-04-01T16:09:56;1.30;;;1.30;;
19643;SDS011;9970;-36.854;174.870;2023-04-01T16:12:41;1.40;;;1.40;;
19643;SDS011;9970;-36.854;174.870;2023-04-01T16:18:09;1.20;;;1.20;;
19643;SDS011;9970;-36.854;174.870;2023-04-01T16:23:36;1.30;;;1.30;;
19643;SDS011;9970;-36.854;174.870;2023-04-01T16:26:23;1.20;;;1.20;;
19643;SDS011;9970;-36.854;174.870;2023-04-01T16:32:14;1.30;;;1.30;;
19643;SDS011;9970;-36.854;174.870;2023-04-01T16:38:08;1.27;;;1.27;;
19643;SDS011;9970;-36.854;174.870;2023-04-01T16:46:31;1.20;;;1.20;;
19643;SDS011;9970;-36.854;174.870;2023-04-01T16:54:58;1.30;;;1.30;;
19643;SDS011;9970;-36.854;174.870;2023-04-01T16:57:37;1.30;;;1.30;;
19643;SDS011;9970;-36.854;174.870;2023-04-01T17:00:27;1.30;;;1.30;;
19643;SDS011;9970;-36.854;174.870;2023-04-01T17:03:11;1.23;;;1.23;;
19643;SDS011;9970;-36.854;174.870;2023-04-01T17:11:26;1.20;;;1.20;;
19643;SDS011;9970;-36.854;174.870;2023-04-01T17:16:52;1.20;;;1.20;;
19643;SDS011;9970;-36.854;174.870;2023-04-01T17:19:30;1.10;;;1.10;;
19643;SDS011;9970;-36.854;174.870;2023-04-01T17:22:13;1.10;;;1.10;;
19643;SDS011;9970;-36.854;174.870;2023-04-01T17:35:58;1.10;;;1.10;;
19643;SDS011;9970;-36.854;174.870;2023-04-01T17:44:34;1.20;;;1.20;;
19643;SDS011;9970;-36.854;174.870;2023-04-01T17:47:38;1.20;;;1.20;;
19643;SDS011;9970;-36.854;174.870;2023-04-01T17:53:09;1.20;;;1.20;;
19643;SDS011;9970;-36.854;174.870;2023-04-01T17:55:55;1.20;;;1.20;;
19643;SDS011;9970;-36.854;174.870;2023-04-01T17:58:46;1.20;;;1.20;;
19643;SDS011;9970;-36.854;174.870;2023-04-01T18:01:39;1.30;;;1.30;;
19643;SDS011;9970;-36.854;174.870;2023-04-01T18:07:32;1.23;;;1.23;;
19643;SDS011;9970;-36.854;174.870;2023-04-01T18:10:25;1.20;;;1.20;;
19643;SDS011;9970;-36.854;174.870;2023-04-01T18:24:35;1.20;;;1.20;;
19643;SDS011;9970;-36.854;174.870;2023-04-01T18:29:59;1.27;;;1.27;;
19643;SDS011;9970;-36.854;174.870;2023-04-01T18:32:36;1.20;;;1.20;;
19643;SDS011;9970;-36.854;174.870;2023-04-01T18:38:06;1.10;;;1.10;;
19643;SDS011;9970;-36.854;174.870;2023-04-01T18:40:42;1.20;;;1.20;;
19643;SDS011;9970;-36.854;174.870;2023-04-01T18:46:13;1.30;;;1.30;;
19643;SDS011;9970;-36.854;174.870;2023-04-01T18:52:36;1.30;;;1.30;;
19643;SDS011;9970;-36.854;174.870;2023-04-01T18:54:30;1.20;;;1.20;;
19643;SDS011;9970;-36.854;174.870;2023-04-01T18:57:14;1.20;;;1.20;;
19643;SDS011;9970;-36.854;174.870;2023-04-01T18:59:56;1.20;;;1.20;;
19643;SDS011;9970;-36.854;174.870;2023-04-01T19:02:44;1.10;;;1.10;;
19643;SDS011;9970;-36.854;174.870;2023-04-01T19:05:18;1.10;;;1.10;;
19643;SDS011;9970;-36.854;174.870;2023-04-01T19:07:55;1.17;;;1.17;;
19643;SDS011;9970;-36.854;174.870;2023-04-01T19:27:53;1.30;;;1.30;;
19643;SDS011;9970;-36.854;174.870;2023-04-01T19:30:48;1.30;;;1.30;;
19643;SDS011;9970;-36.854;174.870;2023-04-01T19:39:38;1.30;;;1.30;;
19643;SDS011;9970;-36.854;174.870;2023-04-01T19:45:51;1.20;;;1.20;;
19643;SDS011;9970;-36.854;174.870;2023-04-01T19:53:33;1.10;;;1.10;;
19643;SDS011;9970;-36.854;174.870;2023-04-01T19:56:22;1.10;;;1.10;;
19643;SDS011;9970;-36.854;174.870;2023-04-01T20:15:54;1.30;;;1.30;;
19643;SDS011;9970;-36.854;174.870;2023-04-01T20:18:25;1.10;;;1.10;;
19643;SDS011;9970;-36.854;174.870;2023-04-01T20:21:00;1.10;;;1.10;;
19643;SDS011;9970;-36.854;174.870;2023-04-01T20:23:39;1.10;;;1.10;;
19643;SDS011;9970;-36.854;174.870;2023-04-01T20:26:27;1.10;;;1.10;;
19643;SDS011;9970;-36.854;174.870;2023-04-01T20:29:04;1.17;;;1.17;;
19643;SDS011;9970;-36.854;174.870;2023-04-01T20:31:40;1.00;;;1.00;;
19643;SDS011;9970;-36.854;174.870;2023-04-01T20:42:38;1.07;;;1.07;;
19643;SDS011;9970;-36.854;174.870;2023-04-01T20:45:21;1.00;;;1.00;;
19643;SDS011;9970;-36.854;174.870;2023-04-01T20:48:11;1.00;;;1.00;;
19643;SDS011;9970;-36.854;174.870;2023-04-01T20:53:20;1.10;;;1.10;;
19643;SDS011;9970;-36.854;174.870;2023-04-01T21:16:19;1.20;;;1.20;;
19643;SDS011;9970;-36.854;174.870;2023-04-01T21:21:41;1.20;;;1.20;;
19643;SDS011;9970;-36.854;174.870;2023-04-01T21:27:02;1.20;;;1.20;;
19643;SDS011;9970;-36.854;174.870;2023-04-01T21:32:46;1.30;;;1.30;;
19643;SDS011;9970;-36.854;174.870;2023-04-01T21:35:30;1.30;;;1.30;;
19643;SDS011;9970;-36.854;174.870;2023-04-01T22:09:10;1.40;;;1.40;;
19643;SDS011;9970;-36.854;174.870;2023-04-01T22:14:54;1.50;;;1.50;;
19643;SDS011;9970;-36.854;174.870;2023-04-01T22:17:35;1.40;;;1.40;;
19643;SDS011;9970;-36.854;174.870;2023-04-01T22:20:56;1.50;;;1.50;;
19643;SDS011;9970;-36.854;174.870;2023-04-01T22:28:46;1.60;;;1.60;;
19643;SDS011;9970;-36.854;174.870;2023-04-01T22:31:28;1.80;;;1.80;;
19643;SDS011;9970;-36.854;174.870;2023-04-01T22:34:14;1.80;;;1.80;;
19643;SDS011;9970;-36.854;174.870;2023-04-01T22:37:06;1.80;;;1.80;;
19643;SDS011;9970;-36.854;174.870;2023-04-01T22:45:30;2.00;;;2.00;;
19643;SDS011;9970;-36.854;174.870;2023-04-01T22:48:06;2.10;;;2.10;;
19643;SDS011;9970;-36.854;174.870;2023-04-01T22:50:48;2.10;;;2.10;;
19643;SDS011;9970;-36.854;174.870;2023-04-01T22:54:13;2.30;;;2.30;;
19643;SDS011;9970;-36.854;174.870;2023-04-01T22:56:20;2.20;;;2.20;;
19643;SDS011;9970;-36.854;174.870;2023-04-01T22:59:04;1.97;;;1.97;;
19643;SDS011;9970;-36.854;174.870;2023-04-01T23:01:49;1.90;;;1.90;;
19643;SDS011;9970;-36.854;174.870;2023-04-01T23:04:29;1.90;;;1.90;;
19643;SDS011;9970;-36.854;174.870;2023-04-01T23:07:02;2.10;;;2.10;;
19643;SDS011;9970;-36.854;174.870;2023-04-01T23:09:35;1.90;;;1.90;;
19643;SDS011;9970;-36.854;174.870;2023-04-01T23:12:09;1.70;;;1.70;;
19643;SDS011;9970;-36.854;174.870;2023-04-01T23:28:26;1.90;;;1.90;;
19643;SDS011;9970;-36.854;174.870;2023-04-01T23:30:58;1.83;;;1.83;;
19643;SDS011;9970;-36.854;174.870;2023-04-01T23:33:31;1.90;;;1.90;;
19643;SDS011;9970;-36.854;174.870;2023-04-01T23:36:13;1.87;;;1.87;;
19643;SDS011;9970;-36.854;174.870;2023-04-01T23:38:47;1.80;;;1.80;;
19643;SDS011;9970;-36.854;174.870;2023-04-01T23:41:29;1.80;;;1.80;;
19643;SDS011;9970;-36.854;174.870;2023-04-01T23:44:20;1.70;;;1.70;;
19643;SDS011;9970;-36.854;174.870;2023-04-01T23:46:42;1.80;;;1.80;;
19643;SDS011;9970;-36.854;174.870;2023-04-01T23:52:17;1.70;;;1.70;;
19643;SDS011;9970;-36.854;174.870;2023-04-01T23:54:51;1.70;;;1.70;;
19643;SDS011;9970;-36.854;174.870;2023-04-01T23:57:35;1.60;;;1.60;;
